Arnold, MD (21012)

2:26 PM EST on December 09, 2016 (GMT -0500)
Indian Hills/Glen Eden | | Change Station

Elev 66 ft 39.02 °N, 76.49 °W | Updated 26 seconds ago

Clear
Clear
38.4 °F
Feels Like 38 °F
N
2.0
Wind Variable Wind from West
Gusts 12.0 mph

Today
High -- | Low -- °F
--% Chance of Precip.
Yesterday
High -- | Low -- °F
Precip. -- in
Pressure 30.28 in
Visibility 10.0 miles
Clouds Clear
Windchill 38 °F
Dew Point 20 °F
Humidity 47%
Rainfall 0.00 in
Snow Depth Not available.
7:13 AM 4:43 PM
Waxing Gibbous, 76% visible
METAR KNAK 091854Z AUTO 28013G21KT 10SM CLR 05/M08 A3028 RMK AO2 SLP254 T00501083
Pressure 30.28 in
Visibility 10.0 miles
Clouds Clear
Windchill 38 °F
Dew Point 20 °F
Humidity 47%
Rainfall 0.00 in
Snow Depth Not available.
7:13 AM 4:43 PM
Waxing Gibbous, 76% visible
METAR KNAK 091854Z AUTO 28013G21KT 10SM CLR 05/M08 A3028 RMK AO2 SLP254 T00501083

10-Day Weather Forecast

Almanac

Astronomy

Dec. 09, 2016 Rise Set
Actual Time
Civil Twilight
Nautical Twilight
Astronomical Twilight
Moon
Length of Visible Light
Length of Day
Tomorrow will be .
, % of the Moon is Illuminated

Today's Extremes

State Highs State Lows

Community

WunderPhotos

Upload Photos

1,956,499 photos uploaded!

WunderBlog® & News

Nearby

Air Quality

  Air Quality AQ Index Pollutant
Not available.

Snow Depth

Station Depth Elevation

Earthquake Activity

City Distance Mag. Time & Date
Minimum magnitude displayed is 2.5.

Coastal Water Temperatures

Place Temperature

Stations

Nearby Weather Stations

Station Location Temp. Windchill Dew Point Humidity Wind Precip. Elev Updated Type
                   

Watches & Warnings

There are currently no watches in effect.